sensor_id;sensor_type;location;lat;lon;timestamp;P1;durP1;ratioP1;P2;durP2;ratioP2
15358;SDS011;7779;49.596;11.070;2022-11-27T00:01:18;11.70;;;4.60;;
15358;SDS011;7779;49.596;11.070;2022-11-27T00:03:50;10.37;;;5.77;;
15358;SDS011;7779;49.596;11.070;2022-11-27T00:06:18;8.70;;;6.13;;
15358;SDS011;7779;49.596;11.070;2022-11-27T00:08:46;7.20;;;4.73;;
15358;SDS011;7779;49.596;11.070;2022-11-27T00:11:20;7.30;;;5.47;;
15358;SDS011;7779;49.596;11.070;2022-11-27T00:13:49;16.50;;;5.50;;
15358;SDS011;7779;49.596;11.070;2022-11-27T00:16:16;7.50;;;5.40;;
15358;SDS011;7779;49.596;11.070;2022-11-27T00:18:43;21.37;;;5.20;;
15358;SDS011;7779;49.596;11.070;2022-11-27T00:21:14;34.03;;;6.83;;
15358;SDS011;7779;49.596;11.070;2022-11-27T00:23:50;30.43;;;7.80;;
15358;SDS011;7779;49.596;11.070;2022-11-27T00:26:17;18.80;;;6.93;;
15358;SDS011;7779;49.596;11.070;2022-11-27T00:28:43;19.90;;;6.83;;
15358;SDS011;7779;49.596;11.070;2022-11-27T00:31:13;24.87;;;7.13;;
15358;SDS011;7779;49.596;11.070;2022-11-27T00:33:40;13.47;;;6.50;;
15358;SDS011;7779;49.596;11.070;2022-11-27T00:36:07;11.53;;;6.07;;
15358;SDS011;7779;49.596;11.070;2022-11-27T00:38:34;11.17;;;6.17;;
15358;SDS011;7779;49.596;11.070;2022-11-27T00:41:06;12.13;;;5.83;;
15358;SDS011;7779;49.596;11.070;2022-11-27T00:43:34;10.63;;;5.87;;
15358;SDS011;7779;49.596;11.070;2022-11-27T00:46:01;8.77;;;5.03;;
15358;SDS011;7779;49.596;11.070;2022-11-27T00:48:28;6.67;;;5.10;;
15358;SDS011;7779;49.596;11.070;2022-11-27T00:50:57;5.93;;;4.90;;
15358;SDS011;7779;49.596;11.070;2022-11-27T00:53:29;7.50;;;4.93;;
15358;SDS011;7779;49.596;11.070;2022-11-27T00:55:56;8.13;;;5.47;;
15358;SDS011;7779;49.596;11.070;2022-11-27T00:58:23;6.87;;;5.13;;
15358;SDS011;7779;49.596;11.070;2022-11-27T01:00:53;5.50;;;4.93;;
15358;SDS011;7779;49.596;11.070;2022-11-27T01:03:21;4.93;;;4.43;;
15358;SDS011;7779;49.596;11.070;2022-11-27T01:05:47;5.30;;;4.80;;
15358;SDS011;7779;49.596;11.070;2022-11-27T01:08:13;5.23;;;4.63;;
15358;SDS011;7779;49.596;11.070;2022-11-27T01:10:39;5.70;;;5.10;;
15358;SDS011;7779;49.596;11.070;2022-11-27T01:13:17;6.03;;;5.10;;
15358;SDS011;7779;49.596;11.070;2022-11-27T01:15:44;6.53;;;4.67;;
15358;SDS011;7779;49.596;11.070;2022-11-27T01:18:10;6.07;;;5.07;;
15358;SDS011;7779;49.596;11.070;2022-11-27T01:20:37;6.03;;;5.30;;
15358;SDS011;7779;49.596;11.070;2022-11-27T01:23:04;6.90;;;5.47;;
15358;SDS011;7779;49.596;11.070;2022-11-27T01:25:32;5.60;;;5.00;;
15358;SDS011;7779;49.596;11.070;2022-11-27T01:27:59;6.30;;;5.47;;
15358;SDS011;7779;49.596;11.070;2022-11-27T01:30:25;6.20;;;5.10;;
15358;SDS011;7779;49.596;11.070;2022-11-27T01:32:51;6.50;;;5.50;;
15358;SDS011;7779;49.596;11.070;2022-11-27T01:35:16;6.07;;;5.47;;
15358;SDS011;7779;49.596;11.070;2022-11-27T01:37:42;5.90;;;4.90;;
15358;SDS011;7779;49.596;11.070;2022-11-27T01:40:08;5.43;;;4.93;;
15358;SDS011;7779;49.596;11.070;2022-11-27T01:42:34;6.00;;;5.03;;
15358;SDS011;7779;49.596;11.070;2022-11-27T01:45:00;6.00;;;4.97;;
15358;SDS011;7779;49.596;11.070;2022-11-27T01:47:27;6.07;;;4.70;;
15358;SDS011;7779;49.596;11.070;2022-11-27T01:50:04;5.47;;;4.90;;
15358;SDS011;7779;49.596;11.070;2022-11-27T01:52:41;5.60;;;4.93;;
15358;SDS011;7779;49.596;11.070;2022-11-27T01:57:51;6.60;;;5.40;;
15358;SDS011;7779;49.596;11.070;2022-11-27T02:00:23;5.30;;;4.80;;
15358;SDS011;7779;49.596;11.070;2022-11-27T02:02:50;6.57;;;5.23;;
15358;SDS011;7779;49.596;11.070;2022-11-27T02:05:17;6.47;;;5.10;;
15358;SDS011;7779;49.596;11.070;2022-11-27T02:07:47;5.40;;;4.90;;
15358;SDS011;7779;49.596;11.070;2022-11-27T02:10:14;5.97;;;4.63;;
15358;SDS011;7779;49.596;11.070;2022-11-27T02:13:04;4.87;;;4.40;;
15358;SDS011;7779;49.596;11.070;2022-11-27T02:16:19;5.23;;;4.67;;
15358;SDS011;7779;49.596;11.070;2022-11-27T02:19:05;5.07;;;4.33;;
15358;SDS011;7779;49.596;11.070;2022-11-27T02:21:54;5.13;;;4.43;;
15358;SDS011;7779;49.596;11.070;2022-11-27T02:30:20;4.47;;;4.07;;
15358;SDS011;7779;49.596;11.070;2022-11-27T02:32:48;4.70;;;4.30;;
15358;SDS011;7779;49.596;11.070;2022-11-27T02:38:01;5.37;;;3.90;;
15358;SDS011;7779;49.596;11.070;2022-11-27T02:40:41;4.73;;;4.20;;
15358;SDS011;7779;49.596;11.070;2022-11-27T02:43:20;4.40;;;3.87;;
15358;SDS011;7779;49.596;11.070;2022-11-27T02:45:56;4.07;;;3.67;;
15358;SDS011;7779;49.596;11.070;2022-11-27T02:48:26;3.97;;;3.47;;
15358;SDS011;7779;49.596;11.070;2022-11-27T02:51:01;4.00;;;3.60;;
15358;SDS011;7779;49.596;11.070;2022-11-27T02:53:31;3.80;;;3.40;;
15358;SDS011;7779;49.596;11.070;2022-11-27T02:56:04;5.07;;;4.40;;
15358;SDS011;7779;49.596;11.070;2022-11-27T02:58:39;4.50;;;3.83;;
15358;SDS011;7779;49.596;11.070;2022-11-27T03:01:06;5.07;;;3.67;;
15358;SDS011;7779;49.596;11.070;2022-11-27T03:03:36;4.90;;;4.40;;
15358;SDS011;7779;49.596;11.070;2022-11-27T03:06:08;5.80;;;4.00;;
15358;SDS011;7779;49.596;11.070;2022-11-27T03:08:41;3.97;;;3.50;;
15358;SDS011;7779;49.596;11.070;2022-11-27T03:11:37;4.50;;;4.10;;
15358;SDS011;7779;49.596;11.070;2022-11-27T03:14:05;4.80;;;4.00;;
15358;SDS011;7779;49.596;11.070;2022-11-27T03:19:42;4.30;;;3.40;;
15358;SDS011;7779;49.596;11.070;2022-11-27T03:22:43;3.70;;;3.13;;
15358;SDS011;7779;49.596;11.070;2022-11-27T03:25:09;4.30;;;3.60;;
15358;SDS011;7779;49.596;11.070;2022-11-27T03:27:37;4.07;;;3.20;;
15358;SDS011;7779;49.596;11.070;2022-11-27T03:30:17;3.73;;;3.33;;
15358;SDS011;7779;49.596;11.070;2022-11-27T03:32:43;3.97;;;3.00;;
15358;SDS011;7779;49.596;11.070;2022-11-27T03:35:10;4.20;;;3.17;;
15358;SDS011;7779;49.596;11.070;2022-11-27T03:37:40;4.47;;;3.10;;
15358;SDS011;7779;49.596;11.070;2022-11-27T03:40:06;3.13;;;2.83;;
15358;SDS011;7779;49.596;11.070;2022-11-27T03:45:57;3.17;;;2.77;;
15358;SDS011;7779;49.596;11.070;2022-11-27T03:48:53;3.20;;;2.50;;
15358;SDS011;7779;49.596;11.070;2022-11-27T03:51:36;2.90;;;2.43;;
15358;SDS011;7779;49.596;11.070;2022-11-27T03:57:09;3.43;;;2.70;;
15358;SDS011;7779;49.596;11.070;2022-11-27T04:00:09;2.87;;;2.33;;
15358;SDS011;7779;49.596;11.070;2022-11-27T04:02:54;3.03;;;2.60;;
15358;SDS011;7779;49.596;11.070;2022-11-27T04:05:19;3.47;;;2.30;;
15358;SDS011;7779;49.596;11.070;2022-11-27T04:07:45;2.70;;;2.50;;
15358;SDS011;7779;49.596;11.070;2022-11-27T04:10:11;3.17;;;2.53;;
15358;SDS011;7779;49.596;11.070;2022-11-27T04:12:40;2.63;;;2.23;;
15358;SDS011;7779;49.596;11.070;2022-11-27T04:15:06;3.20;;;2.47;;
15358;SDS011;7779;49.596;11.070;2022-11-27T04:17:33;4.00;;;2.20;;
15358;SDS011;7779;49.596;11.070;2022-11-27T04:19:58;3.00;;;2.53;;
15358;SDS011;7779;49.596;11.070;2022-11-27T04:22:24;3.00;;;2.70;;
15358;SDS011;7779;49.596;11.070;2022-11-27T04:24:50;2.63;;;2.40;;
15358;SDS011;7779;49.596;11.070;2022-11-27T04:27:16;2.50;;;2.10;;
15358;SDS011;7779;49.596;11.070;2022-11-27T04:29:42;2.50;;;2.30;;
15358;SDS011;7779;49.596;11.070;2022-11-27T04:32:08;2.53;;;2.33;;
15358;SDS011;7779;49.596;11.070;2022-11-27T04:34:34;2.63;;;2.43;;
15358;SDS011;7779;49.596;11.070;2022-11-27T04:36:59;3.50;;;2.63;;
15358;SDS011;7779;49.596;11.070;2022-11-27T04:39:25;2.30;;;2.10;;
15358;SDS011;7779;49.596;11.070;2022-11-27T04:41:51;2.93;;;2.33;;
15358;SDS011;7779;49.596;11.070;2022-11-27T04:44:17;3.20;;;2.23;;
15358;SDS011;7779;49.596;11.070;2022-11-27T04:46:43;2.70;;;2.47;;
15358;SDS011;7779;49.596;11.070;2022-11-27T04:49:09;2.47;;;2.27;;
15358;SDS011;7779;49.596;11.070;2022-11-27T04:51:35;2.70;;;2.50;;
15358;SDS011;7779;49.596;11.070;2022-11-27T04:54:01;2.80;;;2.20;;
15358;SDS011;7779;49.596;11.070;2022-11-27T04:56:27;2.80;;;2.50;;
15358;SDS011;7779;49.596;11.070;2022-11-27T04:58:53;2.47;;;2.27;;
15358;SDS011;7779;49.596;11.070;2022-11-27T05:01:18;3.63;;;2.70;;
15358;SDS011;7779;49.596;11.070;2022-11-27T05:03:45;3.43;;;3.13;;
15358;SDS011;7779;49.596;11.070;2022-11-27T05:06:12;5.70;;;3.20;;
15358;SDS011;7779;49.596;11.070;2022-11-27T05:08:38;3.50;;;3.07;;
15358;SDS011;7779;49.596;11.070;2022-11-27T05:11:05;2.73;;;2.53;;
15358;SDS011;7779;49.596;11.070;2022-11-27T05:13:37;3.27;;;2.70;;
15358;SDS011;7779;49.596;11.070;2022-11-27T05:16:03;5.00;;;2.67;;
15358;SDS011;7779;49.596;11.070;2022-11-27T05:18:30;3.00;;;2.63;;
15358;SDS011;7779;49.596;11.070;2022-11-27T05:20:57;3.13;;;2.77;;
15358;SDS011;7779;49.596;11.070;2022-11-27T05:23:25;3.40;;;2.90;;
15358;SDS011;7779;49.596;11.070;2022-11-27T05:25:51;3.37;;;3.07;;
15358;SDS011;7779;49.596;11.070;2022-11-27T05:28:18;3.37;;;2.70;;
15358;SDS011;7779;49.596;11.070;2022-11-27T05:30:45;3.53;;;3.03;;
15358;SDS011;7779;49.596;11.070;2022-11-27T05:33:11;3.00;;;2.67;;
15358;SDS011;7779;49.596;11.070;2022-11-27T05:35:38;3.20;;;2.90;;
15358;SDS011;7779;49.596;11.070;2022-11-27T05:38:04;2.70;;;2.50;;
15358;SDS011;7779;49.596;11.070;2022-11-27T05:40:30;3.63;;;2.90;;
15358;SDS011;7779;49.596;11.070;2022-11-27T05:42:56;3.43;;;3.13;;
15358;SDS011;7779;49.596;11.070;2022-11-27T05:45:21;3.23;;;2.93;;
15358;SDS011;7779;49.596;11.070;2022-11-27T05:47:47;2.77;;;2.57;;
15358;SDS011;7779;49.596;11.070;2022-11-27T05:50:13;3.40;;;2.90;;
15358;SDS011;7779;49.596;11.070;2022-11-27T05:52:39;3.03;;;2.60;;
15358;SDS011;7779;49.596;11.070;2022-11-27T05:55:05;2.40;;;2.20;;
15358;SDS011;7779;49.596;11.070;2022-11-27T05:57:31;3.83;;;2.80;;
15358;SDS011;7779;49.596;11.070;2022-11-27T05:59:57;3.43;;;2.80;;
15358;SDS011;7779;49.596;11.070;2022-11-27T06:02:23;3.20;;;2.40;;
15358;SDS011;7779;49.596;11.070;2022-11-27T06:04:50;3.03;;;2.60;;
15358;SDS011;7779;49.596;11.070;2022-11-27T06:07:16;4.20;;;2.80;;
15358;SDS011;7779;49.596;11.070;2022-11-27T06:09:41;4.23;;;2.57;;
15358;SDS011;7779;49.596;11.070;2022-11-27T06:12:07;3.17;;;2.53;;
15358;SDS011;7779;49.596;11.070;2022-11-27T06:14:33;3.47;;;2.70;;
15358;SDS011;7779;49.596;11.070;2022-11-27T06:17:02;3.70;;;2.70;;
15358;SDS011;7779;49.596;11.070;2022-11-27T06:19:28;4.17;;;2.73;;
15358;SDS011;7779;49.596;11.070;2022-11-27T06:21:54;2.97;;;2.63;;
15358;SDS011;7779;49.596;11.070;2022-11-27T06:24:20;3.67;;;2.70;;
15358;SDS011;7779;49.596;11.070;2022-11-27T06:26:46;3.00;;;2.40;;
15358;SDS011;7779;49.596;11.070;2022-11-27T06:29:12;4.43;;;2.30;;
15358;SDS011;7779;49.596;11.070;2022-11-27T06:31:37;3.50;;;2.77;;
15358;SDS011;7779;49.596;11.070;2022-11-27T06:34:04;2.73;;;2.50;;
15358;SDS011;7779;49.596;11.070;2022-11-27T06:36:32;3.20;;;2.80;;
15358;SDS011;7779;49.596;11.070;2022-11-27T06:39:00;4.60;;;2.93;;
15358;SDS011;7779;49.596;11.070;2022-11-27T06:41:29;4.27;;;3.00;;
15358;SDS011;7779;49.596;11.070;2022-11-27T06:43:56;3.20;;;2.83;;
15358;SDS011;7779;49.596;11.070;2022-11-27T06:46:23;3.10;;;2.67;;
15358;SDS011;7779;49.596;11.070;2022-11-27T06:48:51;4.90;;;3.23;;
15358;SDS011;7779;49.596;11.070;2022-11-27T06:51:19;4.70;;;2.50;;
15358;SDS011;7779;49.596;11.070;2022-11-27T06:53:49;3.60;;;2.43;;
15358;SDS011;7779;49.596;11.070;2022-11-27T06:56:17;4.23;;;2.53;;
15358;SDS011;7779;49.596;11.070;2022-11-27T06:58:49;3.33;;;2.50;;
15358;SDS011;7779;49.596;11.070;2022-11-27T07:01:20;3.13;;;2.33;;
15358;SDS011;7779;49.596;11.070;2022-11-27T07:03:47;2.87;;;2.60;;
15358;SDS011;7779;49.596;11.070;2022-11-27T07:06:14;3.27;;;2.60;;
15358;SDS011;7779;49.596;11.070;2022-11-27T07:08:44;2.87;;;2.47;;
15358;SDS011;7779;49.596;11.070;2022-11-27T07:13:42;3.87;;;2.50;;
15358;SDS011;7779;49.596;11.070;2022-11-27T07:16:10;4.37;;;2.00;;
15358;SDS011;7779;49.596;11.070;2022-11-27T07:18:38;4.47;;;3.17;;
15358;SDS011;7779;49.596;11.070;2022-11-27T07:21:06;3.53;;;3.10;;
15358;SDS011;7779;49.596;11.070;2022-11-27T07:23:33;4.00;;;3.50;;
15358;SDS011;7779;49.596;11.070;2022-11-27T07:26:04;4.43;;;3.67;;
15358;SDS011;7779;49.596;11.070;2022-11-27T07:28:32;4.17;;;3.60;;
15358;SDS011;7779;49.596;11.070;2022-11-27T07:30:59;4.00;;;3.60;;
15358;SDS011;7779;49.596;11.070;2022-11-27T07:33:25;3.33;;;3.00;;
15358;SDS011;7779;49.596;11.070;2022-11-27T07:35:57;4.67;;;3.87;;
15358;SDS011;7779;49.596;11.070;2022-11-27T07:38:24;4.30;;;3.43;;
15358;SDS011;7779;49.596;11.070;2022-11-27T07:40:50;4.27;;;3.57;;
15358;SDS011;7779;49.596;11.070;2022-11-27T07:43:16;4.80;;;3.70;;
15358;SDS011;7779;49.596;11.070;2022-11-27T07:45:41;4.30;;;3.90;;
15358;SDS011;7779;49.596;11.070;2022-11-27T07:48:07;5.87;;;4.67;;
15358;SDS011;7779;49.596;11.070;2022-11-27T07:50:33;6.40;;;4.90;;
15358;SDS011;7779;49.596;11.070;2022-11-27T07:52:58;8.90;;;5.80;;
15358;SDS011;7779;49.596;11.070;2022-11-27T07:55:24;8.07;;;5.60;;
15358;SDS011;7779;49.596;11.070;2022-11-27T07:57:50;5.27;;;4.77;;
15358;SDS011;7779;49.596;11.070;2022-11-27T08:00:16;7.03;;;4.90;;
15358;SDS011;7779;49.596;11.070;2022-11-27T08:02:42;8.53;;;5.50;;
15358;SDS011;7779;49.596;11.070;2022-11-27T08:05:08;7.43;;;5.60;;
15358;SDS011;7779;49.596;11.070;2022-11-27T08:07:34;10.90;;;5.70;;
15358;SDS011;7779;49.596;11.070;2022-11-27T08:09:59;7.83;;;5.47;;
15358;SDS011;7779;49.596;11.070;2022-11-27T08:12:25;9.37;;;5.30;;
15358;SDS011;7779;49.596;11.070;2022-11-27T08:14:51;7.93;;;5.37;;
15358;SDS011;7779;49.596;11.070;2022-11-27T08:17:17;8.70;;;5.63;;
15358;SDS011;7779;49.596;11.070;2022-11-27T08:19:42;10.33;;;5.97;;
15358;SDS011;7779;49.596;11.070;2022-11-27T08:22:11;11.40;;;6.47;;
15358;SDS011;7779;49.596;11.070;2022-11-27T08:24:39;9.53;;;5.43;;
15358;SDS011;7779;49.596;11.070;2022-11-27T08:27:06;9.93;;;5.77;;
15358;SDS011;7779;49.596;11.070;2022-11-27T08:29:33;8.87;;;6.13;;
15358;SDS011;7779;49.596;11.070;2022-11-27T08:31:59;8.50;;;5.90;;
15358;SDS011;7779;49.596;11.070;2022-11-27T08:34:25;10.03;;;6.70;;
15358;SDS011;7779;49.596;11.070;2022-11-27T08:36:51;9.17;;;6.97;;
15358;SDS011;7779;49.596;11.070;2022-11-27T08:39:17;7.43;;;5.57;;
15358;SDS011;7779;49.596;11.070;2022-11-27T08:41:43;8.67;;;6.57;;
15358;SDS011;7779;49.596;11.070;2022-11-27T08:44:08;9.93;;;6.00;;
15358;SDS011;7779;49.596;11.070;2022-11-27T08:46:34;10.27;;;6.83;;
15358;SDS011;7779;49.596;11.070;2022-11-27T08:49:00;11.07;;;6.27;;
15358;SDS011;7779;49.596;11.070;2022-11-27T08:51:26;9.07;;;5.90;;
15358;SDS011;7779;49.596;11.070;2022-11-27T08:53:52;9.97;;;6.60;;
15358;SDS011;7779;49.596;11.070;2022-11-27T08:56:19;10.27;;;6.10;;
15358;SDS011;7779;49.596;11.070;2022-11-27T08:58:48;9.13;;;6.30;;
15358;SDS011;7779;49.596;11.070;2022-11-27T09:01:18;8.70;;;5.67;;
15358;SDS011;7779;49.596;11.070;2022-11-27T09:03:50;9.30;;;5.83;;
15358;SDS011;7779;49.596;11.070;2022-11-27T09:06:18;9.90;;;6.50;;
15358;SDS011;7779;49.596;11.070;2022-11-27T09:08:46;10.10;;;6.13;;
15358;SDS011;7779;49.596;11.070;2022-11-27T09:11:13;7.97;;;6.47;;
15358;SDS011;7779;49.596;11.070;2022-11-27T09:13:41;8.67;;;5.80;;
15358;SDS011;7779;49.596;11.070;2022-11-27T09:16:09;8.20;;;5.43;;
15358;SDS011;7779;49.596;11.070;2022-11-27T09:18:39;10.50;;;6.80;;
15358;SDS011;7779;49.596;11.070;2022-11-27T09:21:09;7.97;;;5.60;;
15358;SDS011;7779;49.596;11.070;2022-11-27T09:23:37;11.23;;;7.00;;
15358;SDS011;7779;49.596;11.070;2022-11-27T09:26:10;10.43;;;6.27;;
15358;SDS011;7779;49.596;11.070;2022-11-27T09:28:40;8.50;;;5.87;;
15358;SDS011;7779;49.596;11.070;2022-11-27T09:31:07;8.20;;;5.53;;
15358;SDS011;7779;49.596;11.070;2022-11-27T09:33:37;6.33;;;5.10;;
15358;SDS011;7779;49.596;11.070;2022-11-27T09:36:06;7.10;;;5.57;;
15358;SDS011;7779;49.596;11.070;2022-11-27T09:38:38;7.90;;;5.93;;
15358;SDS011;7779;49.596;11.070;2022-11-27T09:43:56;7.37;;;5.63;;
15358;SDS011;7779;49.596;11.070;2022-11-27T09:46:38;8.67;;;5.50;;
15358;SDS011;7779;49.596;11.070;2022-11-27T09:49:07;7.30;;;5.63;;
15358;SDS011;7779;49.596;11.070;2022-11-27T09:51:44;7.80;;;5.40;;
15358;SDS011;7779;49.596;11.070;2022-11-27T09:57:10;7.77;;;5.27;;
15358;SDS011;7779;49.596;11.070;2022-11-27T09:59:44;6.07;;;4.67;;
15358;SDS011;7779;49.596;11.070;2022-11-27T10:02:15;7.00;;;4.90;;
15358;SDS011;7779;49.596;11.070;2022-11-27T10:04:48;6.80;;;5.43;;
15358;SDS011;7779;49.596;11.070;2022-11-27T10:07:18;6.10;;;5.03;;
15358;SDS011;7779;49.596;11.070;2022-11-27T10:10:35;7.23;;;5.47;;
15358;SDS011;7779;49.596;11.070;2022-11-27T10:16:15;7.43;;;6.40;;
15358;SDS011;7779;49.596;11.070;2022-11-27T10:25:17;6.90;;;5.17;;
15358;SDS011;7779;49.596;11.070;2022-11-27T10:30:35;8.20;;;5.27;;
15358;SDS011;7779;49.596;11.070;2022-11-27T10:33:19;7.13;;;5.33;;
15358;SDS011;7779;49.596;11.070;2022-11-27T10:35:51;10.53;;;6.53;;
15358;SDS011;7779;49.596;11.070;2022-11-27T10:38:21;10.30;;;6.17;;
15358;SDS011;7779;49.596;11.070;2022-11-27T10:41:05;7.33;;;5.37;;
15358;SDS011;7779;49.596;11.070;2022-11-27T10:43:39;6.60;;;5.43;;
15358;SDS011;7779;49.596;11.070;2022-11-27T10:48:45;7.50;;;5.13;;
15358;SDS011;7779;49.596;11.070;2022-11-27T10:51:12;8.53;;;6.23;;
15358;SDS011;7779;49.596;11.070;2022-11-27T10:53:43;9.10;;;6.07;;
15358;SDS011;7779;49.596;11.070;2022-11-27T10:59:29;7.17;;;5.77;;
15358;SDS011;7779;49.596;11.070;2022-11-27T11:01:59;8.63;;;5.80;;
15358;SDS011;7779;49.596;11.070;2022-11-27T11:04:28;7.77;;;6.07;;
15358;SDS011;7779;49.596;11.070;2022-11-27T11:06:56;8.33;;;5.53;;
15358;SDS011;7779;49.596;11.070;2022-11-27T11:09:27;8.87;;;6.40;;
15358;SDS011;7779;49.596;11.070;2022-11-27T11:12:06;9.30;;;6.10;;
15358;SDS011;7779;49.596;11.070;2022-11-27T11:14:33;6.97;;;5.50;;
15358;SDS011;7779;49.596;11.070;2022-11-27T11:16:58;7.30;;;5.60;;
15358;SDS011;7779;49.596;11.070;2022-11-27T11:19:32;8.13;;;6.17;;
15358;SDS011;7779;49.596;11.070;2022-11-27T11:22:11;8.03;;;5.93;;
15358;SDS011;7779;49.596;11.070;2022-11-27T11:24:39;5.43;;;4.83;;
15358;SDS011;7779;49.596;11.070;2022-11-27T11:27:19;7.57;;;5.57;;
15358;SDS011;7779;49.596;11.070;2022-11-27T11:29:56;7.00;;;5.93;;
15358;SDS011;7779;49.596;11.070;2022-11-27T11:32:34;8.70;;;5.77;;
15358;SDS011;7779;49.596;11.070;2022-11-27T11:35:08;8.20;;;5.83;;
15358;SDS011;7779;49.596;11.070;2022-11-27T11:37:53;5.83;;;5.23;;
15358;SDS011;7779;49.596;11.070;2022-11-27T11:40:24;6.43;;;4.77;;
15358;SDS011;7779;49.596;11.070;2022-11-27T11:45:27;6.80;;;5.60;;
15358;SDS011;7779;49.596;11.070;2022-11-27T11:48:14;7.47;;;5.93;;
15358;SDS011;7779;49.596;11.070;2022-11-27T11:51:07;6.10;;;5.03;;
15358;SDS011;7779;49.596;11.070;2022-11-27T11:54:03;10.37;;;4.80;;
15358;SDS011;7779;49.596;11.070;2022-11-27T11:57:23;6.87;;;5.17;;
15358;SDS011;7779;49.596;11.070;2022-11-27T12:00:08;7.83;;;5.10;;
15358;SDS011;7779;49.596;11.070;2022-11-27T12:05:23;6.50;;;5.30;;
15358;SDS011;7779;49.596;11.070;2022-11-27T12:16:37;7.73;;;5.10;;
15358;SDS011;7779;49.596;11.070;2022-11-27T12:19:31;5.83;;;4.80;;
15358;SDS011;7779;49.596;11.070;2022-11-27T12:28:02;6.10;;;4.60;;
15358;SDS011;7779;49.596;11.070;2022-11-27T12:31:15;5.93;;;4.70;;
15358;SDS011;7779;49.596;11.070;2022-11-27T12:45:58;5.27;;;3.83;;
15358;SDS011;7779;49.596;11.070;2022-11-27T12:51:53;5.50;;;4.37;;
15358;SDS011;7779;49.596;11.070;2022-11-27T12:54:44;4.57;;;4.13;;
15358;SDS011;7779;49.596;11.070;2022-11-27T12:57:44;4.50;;;3.87;;
15358;SDS011;7779;49.596;11.070;2022-11-27T13:00:20;4.67;;;3.90;;
15358;SDS011;7779;49.596;11.070;2022-11-27T13:03:01;5.80;;;4.00;;
15358;SDS011;7779;49.596;11.070;2022-11-27T13:05:50;6.10;;;4.43;;
15358;SDS011;7779;49.596;11.070;2022-11-27T13:08:29;5.73;;;4.40;;
15358;SDS011;7779;49.596;11.070;2022-11-27T13:11:22;4.90;;;3.80;;
15358;SDS011;7779;49.596;11.070;2022-11-27T13:14:04;4.83;;;3.63;;
15358;SDS011;7779;49.596;11.070;2022-11-27T13:16:47;4.07;;;3.67;;
15358;SDS011;7779;49.596;11.070;2022-11-27T13:22:15;3.80;;;3.40;;
15358;SDS011;7779;49.596;11.070;2022-11-27T13:24:52;4.90;;;3.77;;
15358;SDS011;7779;49.596;11.070;2022-11-27T13:27:24;4.17;;;3.57;;
15358;SDS011;7779;49.596;11.070;2022-11-27T13:29:53;4.87;;;3.87;;
15358;SDS011;7779;49.596;11.070;2022-11-27T13:32:25;4.10;;;3.70;;
15358;SDS011;7779;49.596;11.070;2022-11-27T13:35:05;5.00;;;4.00;;
15358;SDS011;7779;49.596;11.070;2022-11-27T13:37:53;4.33;;;3.73;;
15358;SDS011;7779;49.596;11.070;2022-11-27T13:40:38;4.50;;;3.63;;
15358;SDS011;7779;49.596;11.070;2022-11-27T13:43:26;12.63;;;7.53;;
15358;SDS011;7779;49.596;11.070;2022-11-27T13:46:04;9.50;;;6.00;;
15358;SDS011;7779;49.596;11.070;2022-11-27T13:48:42;6.80;;;4.87;;
15358;SDS011;7779;49.596;11.070;2022-11-27T13:51:37;6.43;;;4.40;;
15358;SDS011;7779;49.596;11.070;2022-11-27T13:54:08;5.43;;;4.17;;
15358;SDS011;7779;49.596;11.070;2022-11-27T13:56:43;5.93;;;4.10;;
15358;SDS011;7779;49.596;11.070;2022-11-27T14:01:50;5.47;;;4.10;;
15358;SDS011;7779;49.596;11.070;2022-11-27T14:04:27;4.73;;;3.70;;
15358;SDS011;7779;49.596;11.070;2022-11-27T14:07:04;4.47;;;3.70;;
15358;SDS011;7779;49.596;11.070;2022-11-27T14:09:38;4.17;;;3.30;;
15358;SDS011;7779;49.596;11.070;2022-11-27T14:12:16;4.10;;;3.50;;
15358;SDS011;7779;49.596;11.070;2022-11-27T14:15:02;4.80;;;3.60;;
15358;SDS011;7779;49.596;11.070;2022-11-27T14:17:44;4.50;;;3.80;;
15358;SDS011;7779;49.596;11.070;2022-11-27T14:25:26;5.43;;;3.40;;
15358;SDS011;7779;49.596;11.070;2022-11-27T14:28:08;4.07;;;3.37;;
15358;SDS011;7779;49.596;11.070;2022-11-27T14:30:59;4.07;;;3.00;;
15358;SDS011;7779;49.596;11.070;2022-11-27T14:36:02;4.83;;;3.40;;
15358;SDS011;7779;49.596;11.070;2022-11-27T14:38:31;3.70;;;3.20;;
15358;SDS011;7779;49.596;11.070;2022-11-27T14:41:09;4.20;;;3.23;;
15358;SDS011;7779;49.596;11.070;2022-11-27T14:43:44;3.60;;;3.00;;
15358;SDS011;7779;49.596;11.070;2022-11-27T14:46:17;3.17;;;2.53;;
15358;SDS011;7779;49.596;11.070;2022-11-27T14:48:49;3.60;;;2.77;;
15358;SDS011;7779;49.596;11.070;2022-11-27T14:51:24;3.27;;;2.97;;
15358;SDS011;7779;49.596;11.070;2022-11-27T14:53:55;3.50;;;2.97;;
15358;SDS011;7779;49.596;11.070;2022-11-27T14:56:30;4.23;;;3.37;;
15358;SDS011;7779;49.596;11.070;2022-11-27T14:58:59;3.73;;;2.80;;
15358;SDS011;7779;49.596;11.070;2022-11-27T15:01:28;3.50;;;2.83;;
15358;SDS011;7779;49.596;11.070;2022-11-27T15:04:02;3.47;;;3.03;;
15358;SDS011;7779;49.596;11.070;2022-11-27T15:06:47;3.60;;;2.80;;
15358;SDS011;7779;49.596;11.070;2022-11-27T15:09:16;3.13;;;2.73;;
15358;SDS011;7779;49.596;11.070;2022-11-27T15:11:52;3.50;;;2.60;;
15358;SDS011;7779;49.596;11.070;2022-11-27T15:14:45;4.00;;;2.83;;
15358;SDS011;7779;49.596;11.070;2022-11-27T15:17:24;4.60;;;3.17;;
15358;SDS011;7779;49.596;11.070;2022-11-27T15:19:54;3.63;;;3.07;;
15358;SDS011;7779;49.596;11.070;2022-11-27T15:22:21;4.80;;;3.23;;
15358;SDS011;7779;49.596;11.070;2022-11-27T15:25:01;4.40;;;3.00;;
15358;SDS011;7779;49.596;11.070;2022-11-27T15:27:51;4.73;;;3.23;;
15358;SDS011;7779;49.596;11.070;2022-11-27T15:30:17;4.43;;;3.50;;
15358;SDS011;7779;49.596;11.070;2022-11-27T15:35:29;4.97;;;3.63;;
15358;SDS011;7779;49.596;11.070;2022-11-27T15:37:59;3.97;;;3.50;;
15358;SDS011;7779;49.596;11.070;2022-11-27T15:40:34;4.20;;;3.63;;
15358;SDS011;7779;49.596;11.070;2022-11-27T15:43:12;5.07;;;3.73;;
15358;SDS011;7779;49.596;11.070;2022-11-27T15:45:41;5.40;;;3.90;;
15358;SDS011;7779;49.596;11.070;2022-11-27T15:48:13;5.30;;;3.93;;
15358;SDS011;7779;49.596;11.070;2022-11-27T15:50:45;6.17;;;4.00;;
15358;SDS011;7779;49.596;11.070;2022-11-27T15:53:11;5.07;;;3.90;;
15358;SDS011;7779;49.596;11.070;2022-11-27T15:55:36;4.10;;;3.40;;
15358;SDS011;7779;49.596;11.070;2022-11-27T15:58:02;4.60;;;3.83;;
15358;SDS011;7779;49.596;11.070;2022-11-27T16:00:28;5.43;;;4.43;;
15358;SDS011;7779;49.596;11.070;2022-11-27T16:02:54;4.80;;;3.83;;
15358;SDS011;7779;49.596;11.070;2022-11-27T16:05:19;5.13;;;4.00;;
15358;SDS011;7779;49.596;11.070;2022-11-27T16:07:46;5.07;;;4.03;;
15358;SDS011;7779;49.596;11.070;2022-11-27T16:10:12;4.60;;;3.87;;
15358;SDS011;7779;49.596;11.070;2022-11-27T16:12:38;7.17;;;4.10;;
15358;SDS011;7779;49.596;11.070;2022-11-27T16:15:04;6.00;;;4.50;;
15358;SDS011;7779;49.596;11.070;2022-11-27T16:17:31;6.33;;;4.67;;
15358;SDS011;7779;49.596;11.070;2022-11-27T16:19:57;5.87;;;4.13;;
15358;SDS011;7779;49.596;11.070;2022-11-27T16:22:23;6.40;;;4.60;;
15358;SDS011;7779;49.596;11.070;2022-11-27T16:24:48;6.30;;;4.20;;
15358;SDS011;7779;49.596;11.070;2022-11-27T16:27:14;5.97;;;4.80;;
15358;SDS011;7779;49.596;11.070;2022-11-27T16:29:40;6.23;;;4.83;;
15358;SDS011;7779;49.596;11.070;2022-11-27T16:32:06;5.90;;;4.47;;
15358;SDS011;7779;49.596;11.070;2022-11-27T16:34:33;7.00;;;5.10;;
15358;SDS011;7779;49.596;11.070;2022-11-27T16:36:59;5.60;;;4.53;;
15358;SDS011;7779;49.596;11.070;2022-11-27T16:39:25;6.30;;;5.13;;
15358;SDS011;7779;49.596;11.070;2022-11-27T16:41:51;6.40;;;5.17;;
15358;SDS011;7779;49.596;11.070;2022-11-27T16:44:18;7.17;;;5.60;;
15358;SDS011;7779;49.596;11.070;2022-11-27T16:46:44;6.53;;;5.30;;
15358;SDS011;7779;49.596;11.070;2022-11-27T16:49:10;6.23;;;5.23;;